Data for 10/14/2014

Time Sea-Level Adjusted Pressure Absolute Pressure Temperature Relative Humidity Dew Point   
(mb) (inHg) (mb) (inHg) (C) (F) (%) (C) (F)
00:05 1019 30.09 848 25.04 9.4 49 54 0.6 33.1
00:10 1019 30.09 848 25.04 9.3 48.8 53 0.3 32.6
00:15 1019 30.09 848 25.04 9.4 49 53 0.3 32.6
00:20 1019 30.09 848 25.04 9.5 49.2 52 0.2 32.3
00:25 1019 30.09 848 25.04 9.5 49.1 53 0.4 32.7
00:30 1019 30.09 848 25.04 9.4 48.8 53 0.3 32.6
00:35 1019 30.09 848 25.04 9.4 49 53 0.2 32.4
00:40 1019 30.09 848 25.04 9.4 48.8 53 0.4 32.7
00:45 1019 30.09 848 25.04 9.3 48.7 52 0.1 32.2
00:50 1019 30.09 848 25.04 9.6 49.3 51 -0 32
00:55 1019 30.09 848 25.04 9.6 49.3 51 0.1 32.1
01:00 1019 30.09 848 25.04 9.6 49.3 51 -0 32
01:05 1019 30.09 848 25.04 9.5 49.2 53 0.4 32.7
01:10 1019 30.09 848 25.04 9 48.2 55 0.5 32.8
01:15 1019 30.09 848 25.04 8.7 47.7 56 0.4 32.7
01:20 1019 30.09 848 25.04 8.6 47.5 56 0.4 32.7
01:25 1019 30.09 848 25.04 8.5 47.3 56 0.3 32.5
01:30 1019 30.09 848 25.04 8.5 47.2 57 0.4 32.8
01:35 1019 30.09 848 25.04 8.4 47.1 56 0.3 32.5
01:40 1018 30.06 848 25.04 8.5 47.4 56 0.2 32.4
01:45 1018 30.06 848 25.04 8.6 47.4 56 0.3 32.5
01:50 1018 30.06 848 25.04 8.4 47.2 56 0.3 32.5
01:55 1018 30.06 848 25.04 8.5 47.3 56 0.2 32.3
02:00 1018 30.06 848 25.04 8.6 47.5 54 -0 32
02:05 1018 30.06 847 25.01 8.8 47.8 54 0.1 32.1
02:10 1018 30.06 848 25.04 8.9 48 54 -0 32
02:15 1018 30.06 848 25.04 8.8 47.9 54 0.1 32.1
02:20 1018 30.06 847 25.01 9 48.2 53 0 32
02:25 1018 30.06 847 25.01 8.8 47.8 55 0.2 32.4
02:30 1018 30.06 847 25.01 8.6 47.5 55 0 32.1
02:35 1018 30.06 847 25.01 8.7 47.7 55 0.3 32.5
02:40 1018 30.06 848 25.04 8.4 47.1 55 -0.1 31.8
02:45 1018 30.06 847 25.01 8.5 47.3 56 0.3 32.5
02:50 1018 30.06 847 25.01 8.3 46.9 56 0.1 32.1
02:55 1018 30.06 847 25.01 8.1 46.6 56 -0.1 31.9
03:00 1018 30.06 847 25.01 8.4 47.1 55 -0.1 31.8
03:05 1018 30.06 847 25.01 8.4 47.2 56 0.3 32.5
03:10 1018 30.06 847 25.01 8.4 47.1 56 0.2 32.3
03:15 1018 30.06 847 25.01 8.3 47 57 0.3 32.6
03:20 1018 30.06 847 25.01 8.2 46.8 54 -0.5 31.2
03:25 1018 30.06 847 25.01 8.6 47.4 54 -0.3 31.5
03:30 1018 30.06 847 25.01 8.6 47.5 53 -0.5 31.1
03:35 1018 30.06 847 25.01 8.7 47.6 52 -0.5 31.1
03:40 1018 30.06 847 25.01 8.8 47.9 52 -0.4 31.3
03:45 1018 30.06 847 25.01 8.9 48.1 52 -0.4 31.4
03:50 1018 30.06 847 25.01 8.8 47.8 53 -0.2 31.6
03:55 1018 30.06 847 25.01 8.4 47.1 53 -0.5 31.2
04:00 1018 30.06 847 25.01 8.9 48.1 50 -1 30.2
04:05 1018 30.06 847 25.01 9.4 49 48 -1 30.1
04:10 1018 30.06 847 25.01 9.6 49.4 47 -1.1 30
04:15 1018 30.06 847 25.01 9.6 49.3 48 -0.9 30.3
04:20 1018 30.06 847 25.01 9.5 49.2 48 -0.8 30.6
04:25 1018 30.06 847 25.01 9.3 48.7 49 -0.8 30.5
04:30 1018 30.06 847 25.01 9.3 48.7 48 -1.1 30.1
04:35 1018 30.06 847 25.01 9.4 48.8 48 -1.1 30
04:40 1018 30.06 847 25.01 9.6 49.3 46 -1.3 29.7
04:45 1018 30.06 847 25.01 9.6 49.4 47 -1.1 30
04:50 1018 30.06 847 25.01 9.6 49.3 47 -1 30.1
04:55 1018 30.06 847 25.01 9.4 48.8 49 -0.9 30.5
05:00 1018 30.06 847 25.01 9.1 48.4 49 -1 30.2
05:05 1018 30.06 847 25.01 9 48.3 49 -1 30.3
05:10 1018 30.06 847 25.01 8.8 47.9 51 -0.6 30.9
05:15 1018 30.06 847 25.01 8.5 47.2 52 -0.8 30.6
05:20 1018 30.06 847 25.01 8.2 46.7 54 -0.5 31
05:25 1018 30.06 847 25.01 7.8 46.1 55 -0.7 30.7
05:30 1018 30.06 847 25.01 7.9 46.3 54 -0.7 30.8
05:35 1018 30.06 847 25.01 8 46.4 54 -0.6 30.9
05:40 1018 30.06 847 25.01 8.1 46.6 52 -1.2 29.9
05:45 1018 30.06 847 25.01 8.7 47.6 50 -1.2 29.8
05:50 1018 30.06 847 25.01 8.8 47.8 50 -1 30.3
05:55 1018 30.06 847 25.01 9 48.2 48 -1.3 29.7
06:00 1018 30.06 847 25.01 9.3 48.7 48 -1.2 29.8
06:05 1018 30.06 847 25.01 9.1 48.4 48 -1.3 29.7
06:10 1018 30.06 847 25.01 9.2 48.6 46 -1.7 28.9
06:15 1018 30.06 847 25.01 9.5 49.2 46 -1.4 29.4
06:20 1018 30.06 847 25.01 9.4 48.9 47 -1.4 29.4
06:25 1018 30.06 847 25.01 9.4 48.9 47 -1.4 29.6
06:30 1018 30.06 847 25.01 9.3 48.7 48 -1.2 29.8
06:35 1018 30.06 847 25.01 9.3 48.7 47 -1.5 29.3
06:40 1018 30.06 847 25.01 9.2 48.6 47 -1.5 29.4
06:45 1018 30.06 847 25.01 9.4 49 46 -1.6 29
06:50 1018 30.06 847 25.01 9.7 49.4 45 -1.7 28.9
06:55 1018 30.06 847 25.01 9.8 49.6 45 -1.6 29.1
07:00 1018 30.06 847 25.01 9.7 49.5 45 -1.7 28.9
07:05 1018 30.06 847 25.01 10 49.9 42 -2.2 28
07:10 1018 30.06 847 25.01 10.3 50.5 41 -2.2 28
07:15 1018 30.06 847 25.01 10.4 50.7 42 -1.9 28.5
07:20 1018 30.06 847 25.01 10.1 50.3 45 -1.4 29.6
07:25 1018 30.06 847 25.01 9.5 49.1 48 -1 30.3
07:30 1018 30.06 847 25.01 9.2 48.5 49 -1 30.2
07:35 1018 30.06 847 25.01 9.2 48.6 47 -1.4 29.4
07:40 1018 30.06 847 25.01 9.4 49 47 -1.4 29.5
07:45 1018 30.06 847 25.01 9.6 49.2 47 -1.2 29.8
07:50 1018 30.06 847 25.01 9.8 49.6 47 -0.9 30.4
07:55 1018 30.06 847 25.01 9.7 49.5 47 -0.9 30.4
08:00 1018 30.06 847 25.01 9.8 49.6 49 -0.5 31.1
08:05 1018 30.06 847 25.01 10.1 50.2 48 -0.2 31.6
08:10 1018 30.06 847 25.01 10.4 50.8 48 -0.2 31.7
08:15 1018 30.06 847 25.01 10.6 51.1 48 -0 31.9
08:20 1018 30.06 847 25.01 10.7 51.2 47 -0.2 31.7
08:25 1018 30.06 847 25.01 11 51.7 47 0.1 32.2
08:30 1018 30.06 847 25.01 11.2 52.1 45 -0.1 31.7
08:35 1018 30.06 847 25.01 11.4 52.4 46 0.2 32.3
08:40 1018 30.06 847 25.01 11.7 53 40 -1.3 29.7
08:45 1018 30.06 847 25.01 12.4 54.3 37 -1.9 28.6
08:50 1018 30.06 847 25.01 13 55.3 38 -1.1 30
08:55 1018 30.06 847 25.01 13.5 56.2 36 -1.1 30
09:00 1018 30.06 847 25.01 13.7 56.7 36 -1.1 30.1
09:05 1018 30.06 847 25.01 13.8 56.8 36 -1.1 30
09:10 1018 30.06 847 25.01 14.2 57.5 35 -0.8 30.5
09:15 1018 30.06 847 25.01 14.1 57.4 36 -0.8 30.6
09:20 1018 30.06 847 25.01 14.3 57.8 35 -0.9 30.4
09:25 1018 30.06 847 25.01 15 59 33 -1.3 29.7
09:30 1018 30.06 847 25.01 16 60.8 33 -0.3 31.4
09:35 1018 30.06 847 25.01 16.5 61.7 29 -1.3 29.7
09:40 1018 30.06 847 25.01 17 62.6 31 -0.2 31.6
09:45 1018 30.06 847 25.01 17.4 63.4 26 -2.3 27.9
09:50 1018 30.06 847 25.01 17.8 64 26 -1.9 28.5
09:55 1018 30.06 847 25.01 18.1 64.6 25 -1.9 28.6
10:00 1018 30.06 847 25.01 18.5 65.3 25 -1.6 29.2
10:05 1017 30.03 847 25.01 19.1 66.3 24 -1.7 28.9
10:10 1017 30.03 847 25.01 19.1 66.3 25 -1.4 29.6
10:15 1017 30.03 847 25.01 19 66.1 25 -1.4 29.6
10:20 1017 30.03 847 25.01 18.7 65.7 25 -1.4 29.4
10:25 1017 30.03 846 24.98 19 66.2 24 -1.9 28.6
10:30 1017 30.03 846 24.98 19.7 67.5 24 -1.5 29.3
10:35 1017 30.03 846 24.98 19.5 67.2 24 -1.7 29
10:40 1017 30.03 846 24.98 19.3 66.7 24 -1.6 29
10:45 1017 30.03 846 24.98 19.3 66.7 25 -0.9 30.3
10:50 1017 30.03 846 24.98 19 66.2 26 -0.7 30.7
10:55 1017 30.03 846 24.98 18.9 66.1 26 -0.6 30.9
11:00 1017 30.03 846 24.98 18.4 65.2 28 -0.3 31.4
11:05 1017 30.03 846 24.98 18.1 64.6 28 -0.5 31.2
11:10 1017 30.03 846 24.98 17.9 64.3 30 0.2 32.4
11:15 1017 30.03 846 24.98 18.2 64.7 29 -0.1 31.8
11:20 1017 30.03 846 24.98 18.2 64.8 27 -0.9 30.5
11:25 1017 30.03 846 24.98 18.5 65.4 27 -0.7 30.7
11:30 1017 30.03 846 24.98 18.5 65.3 26 -1.1 30.1
11:35 1017 30.03 846 24.98 18.3 65 27 -1 30.1
11:40 1017 30.03 846 24.98 18.5 65.2 28 -0.4 31.3
11:45 1017 30.03 846 24.98 18.7 65.7 27 -0.5 31.1
11:50 1016 30 846 24.98 18.7 65.7 27 -0.7 30.7
11:55 1016 30 846 24.98 19.4 66.9 26 -0.6 30.9
12:00 1016 30 846 24.98 19.2 66.5 26 -0.7 30.7
12:05 1016 30 845 24.95 19.3 66.8 27 -0.1 31.8
12:10 1016 30 845 24.95 19.4 67 25 -0.9 30.5
12:15 1016 30 845 24.95 20 68 24 -0.7 30.7
12:20 1016 30 845 24.95 20.2 68.3 23 -1.3 29.6
12:25 1016 30 845 24.95 20.3 68.6 23 -1.1 29.9
12:30 1016 30 845 24.95 21.1 70 23 -0.8 30.6
12:35 1016 30 845 24.95 21.8 71.2 21 -1.2 29.8
12:40 1016 30 845 24.95 21.4 70.5 21 -1.7 29
12:45 1016 30 845 24.95 21.1 69.9 21 -2.2 28
12:50 1016 30 845 24.95 21.1 69.9 20 -2.6 27.4
12:55 1016 30 845 24.95 20.8 69.4 21 -2.1 28.2
13:00 1016 30 845 24.95 20.8 69.4 21 -2 28.4
13:05 1016 30 845 24.95 20.7 69.2 22 -1.5 29.2
13:10 1016 30 845 24.95 20.7 69.2 20 -2.7 27.1
13:15 1016 30 845 24.95 20.6 69.2 21 -2.5 27.5
13:20 1016 30 845 24.95 20.6 69.1 21 -2.3 27.8
13:25 1016 30 845 24.95 20.9 69.7 21 -1.9 28.5
13:30 1015 29.97 845 24.95 21 69.7 21 -1.8 28.8
13:35 1015 29.97 845 24.95 20.9 69.6 20 -3 26.6
13:40 1015 29.97 845 24.95 20.8 69.4 20 -2.9 26.8
13:45 1015 29.97 845 24.95 20.8 69.4 21 -2.5 27.5
13:50 1015 29.97 845 24.95 21 69.8 20 -2.4 27.8
13:55 1015 29.97 844 24.92 21.1 70 20 -2.8 27
14:00 1015 29.97 844 24.92 21.4 70.5 19 -2.7 27.1
14:05 1015 29.97 844 24.92 21.4 70.6 19 -3.2 26.2
14:10 1015 29.97 844 24.92 21.3 70.4 19 -2.9 26.8
14:15 1015 29.97 844 24.92 21.4 70.5 21 -2 28.4
14:20 1015 29.97 844 24.92 21.5 70.7 19 -3.1 26.5
14:25 1015 29.97 844 24.92 21.6 70.9 21 -1.5 29.2
14:30 1015 29.97 844 24.92 21.6 70.8 18 -3.4 25.9
14:35 1015 29.97 844 24.92 21.4 70.6 18 -3.4 25.9
14:40 1015 29.97 844 24.92 21.3 70.3 18 -3.6 25.5
14:45 1015 29.97 844 24.92 21.2 70.1 20 -2.4 27.7
14:50 1015 29.97 844 24.92 21.3 70.3 19 -3.3 26
14:55 1015 29.97 844 24.92 21.2 70.2 19 -3.5 25.7
15:00 1015 29.97 844 24.92 21.3 70.4 19 -3 26.5
15:05 1015 29.97 844 24.92 21.6 70.9 18 -3.3 26.1
15:10 1014 29.94 844 24.92 21.6 70.9 19 -3.1 26.5
15:15 1014 29.94 844 24.92 21.8 71.3 20 -2.1 28.2
15:20 1014 29.94 844 24.92 21.9 71.5 22 -0.7 30.7
15:25 1014 29.94 844 24.92 21.6 70.8 20 -2.1 28.3
15:30 1014 29.94 844 24.92 21.6 70.8 19 -2.9 26.7
15:35 1014 29.94 843 24.89 21.3 70.4 20 -2.2 28
15:40 1014 29.94 843 24.89 21.4 70.6 20 -2.4 27.6
15:45 1014 29.94 843 24.89 21.2 70.2 20 -2.6 27.3
15:50 1014 29.94 843 24.89 21.1 70 20 -2.5 27.4
15:55 1014 29.94 843 24.89 20.9 69.7 21 -2.2 28.1
16:00 1014 29.94 843 24.89 20.6 69.1 21 -2.4 27.7
16:05 1014 29.94 843 24.89 20.4 68.7 21 -2.7 27.1
16:10 1014 29.94 843 24.89 20.5 68.8 22 -1.8 28.8
16:15 1014 29.94 843 24.89 20.6 69.1 20 -2.6 27.3
16:20 1014 29.94 843 24.89 20.4 68.8 21 -2.3 27.8
16:25 1014 29.94 843 24.89 20.3 68.5 21 -2.4 27.7
16:30 1014 29.94 843 24.89 20.3 68.5 22 -2 28.4
16:35 1014 29.94 843 24.89 20.2 68.3 21 -2.9 26.8
16:40 1014 29.94 843 24.89 20 68 21 -2.6 27.4
16:45 1014 29.94 843 24.89 20 68 21 -3 26.6
16:50 1014 29.94 843 24.89 19.8 67.6 23 -2 28.5
16:55 1014 29.94 843 24.89 19.5 67.1 23 -2 28.4
17:00 1014 29.94 843 24.89 19.3 66.7 23 -2.4 27.7
17:05 1014 29.94 843 24.89 19 66.2 23 -2.6 27.3
17:10 1014 29.94 843 24.89 18.8 65.8 23 -2.5 27.5
17:15 1014 29.94 843 24.89 18.5 65.3 24 -2.2 28
17:20 1014 29.94 843 24.89 18.2 64.8 25 -2 28.5
17:25 1014 29.94 843 24.89 17.9 64.3 26 -1.7 28.9
17:30 1014 29.94 843 24.89 17.7 63.9 25 -2.6 27.4
17:35 1014 29.94 843 24.89 17.6 63.7 25 -2.6 27.4
17:40 1014 29.94 843 24.89 17.5 63.4 25 -2.4 27.6
17:45 1014 29.94 843 24.89 17.3 63.1 26 -2.3 27.9
17:50 1014 29.94 843 24.89 16.9 62.5 27 -2.2 28.1
17:55 1014 29.94 843 24.89 16.6 61.9 27 -2.5 27.6
18:00 1014 29.94 843 24.89 16.6 62 26 -3 26.5
18:05 1014 29.94 843 24.89 16.8 62.3 25 -3.4 26
18:10 1014 29.94 843 24.89 16.7 62.1 25 -3.2 26.3
18:15 1014 29.94 843 24.89 16.6 61.8 26 -3.1 26.5
18:20 1014 29.94 843 24.89 16.3 61.4 26 -3.1 26.5
18:25 1014 29.94 843 24.89 16.2 61.1 26 -3.3 26.1
18:30 1014 29.94 843 24.89 16 60.8 26 -3.4 25.8
18:35 1014 29.94 843 24.89 16 60.8 26 -3.6 25.5
18:40 1014 29.94 843 24.89 16 60.8 25 -3.7 25.3
18:45 1014 29.94 843 24.89 16.1 60.9 24 -4.3 24.2
18:50 1014 29.94 843 24.89 16.1 61 26 -3.5 25.7
18:55 1014 29.94 843 24.89 16 60.8 24 -4.3 24.3
19:00 1014 29.94 843 24.89 16.6 62 22 -5.1 22.8
19:05 1014 29.94 843 24.89 17.5 63.4 20 -5.4 22.2
19:10 1014 29.94 843 24.89 17.6 63.6 21 -4.8 23.3
19:15 1014 29.94 843 24.89 17.1 62.7 22 -4.5 23.9
19:20 1014 29.94 843 24.89 16.6 61.9 24 -4 24.7
19:25 1014 29.94 843 24.89 16.3 61.3 25 -3.9 24.9
19:30 1014 29.94 843 24.89 16 60.7 24 -4.6 23.6
19:35 1014 29.94 843 24.89 16.6 61.9 20 -6.1 21.1
19:40 1014 29.94 843 24.89 17.2 62.9 22 -4.7 23.6
19:45 1014 29.94 843 24.89 16.9 62.4 21 -5.4 22.3
19:50 1014 29.94 843 24.89 17.2 63 21 -5.1 22.8
19:55 1014 29.94 843 24.89 17.5 63.5 22 -4.6 23.8
20:00 1014 29.94 843 24.89 16.8 62.2 24 -4 24.8
20:05 1014 29.94 843 24.89 16.2 61.1 23 -5.1 22.8
20:10 1014 29.94 843 24.89 16.6 61.9 25 -3.7 25.4
20:15 1014 29.94 843 24.89 16.4 61.5 23 -5 23
20:20 1014 29.94 843 24.89 16.7 62.1 22 -5 23
20:25 1014 29.94 843 24.89 16.7 62.1 22 -4.7 23.5
20:30 1014 29.94 843 24.89 16.8 62.3 22 -4.6 23.7
20:35 1014 29.94 843 24.89 16.8 62.3 23 -4.4 24.1
20:40 1014 29.94 843 24.89 16.5 61.8 24 -4.1 24.7
20:45 1013 29.91 843 24.89 16.6 61.8 23 -4.7 23.6
20:50 1013 29.91 843 24.89 16.8 62.2 24 -4 24.7
20:55 1013 29.91 843 24.89 16.4 61.4 25 -3.4 25.9
21:00 1013 29.91 843 24.89 15.6 60.2 26 -3.9 25
21:05 1013 29.91 843 24.89 16.5 61.6 25 -3.5 25.8
21:10 1013 29.91 843 24.89 15.7 60.3 27 -3.3 26.1
21:15 1013 29.91 843 24.89 15.4 59.6 28 -3.2 26.3
21:20 1013 29.91 843 24.89 15.3 59.5 23 -5.4 22.3
21:25 1013 29.91 843 24.89 16.7 62 25 -3.5 25.8
21:30 1013 29.91 843 24.89 15.7 60.3 26 -3.7 25.3
21:35 1013 29.91 843 24.89 15.8 60.4 26 -3.7 25.3
21:40 1013 29.91 843 24.89 15.8 60.4 25 -4.1 24.6
21:45 1013 29.91 843 24.89 16.3 61.3 23 -4.6 23.8
21:50 1013 29.91 843 24.89 16.6 61.9 23 -4.8 23.4
21:55 1013 29.91 843 24.89 17 62.5 23 -4.5 24
22:00 1013 29.91 843 24.89 16.6 61.8 27 -2.6 27.4
22:05 1013 29.91 843 24.89 15.7 60.3 25 -4.1 24.7
22:10 1013 29.91 843 24.89 15.7 60.2 25 -4.4 24.1
22:15 1013 29.91 843 24.89 15.9 60.6 25 -4 24.8
22:20 1013 29.91 842 24.86 15.8 60.4 25 -4.2 24.4
22:25 1013 29.91 842 24.86 15.6 60.1 26 -4 24.8
22:30 1013 29.91 842 24.86 15.1 59.2 28 -3.4 25.9
22:35 1013 29.91 842 24.86 14.3 57.7 28 -3.9 25
22:40 1013 29.91 842 24.86 14 57.2 31 -3 26.7
22:45 1013 29.91 842 24.86 13.5 56.3 29 -4.3 24.3
22:50 1013 29.91 842 24.86 14.4 57.9 26 -4.7 23.6
22:55 1013 29.91 842 24.86 14.7 58.5 29 -3 26.6
23:00 1013 29.91 842 24.86 14.2 57.5 27 -4.7 23.5
23:05 1013 29.91 842 24.86 15.2 59.4 25 -4.7 23.5
23:10 1013 29.91 842 24.86 15.3 59.6 26 -4.1 24.7
23:15 1013 29.91 842 24.86 14.6 58.4 28 -3.7 25.4
23:20 1013 29.91 842 24.86 14.4 57.9 27 -4.4 24.1
23:25 1013 29.91 842 24.86 14.5 58.1 30 -2.7 27.2
23:30 1013 29.91 842 24.86 13.3 55.9 28 -4.7 23.5
23:35 1013 29.91 842 24.86 14.7 58.5 27 -4.1 24.7
23:40 1013 29.91 842 24.86 13.6 56.5 32 -2.9 26.7
23:45 1013 29.91 842 24.86 12.6 54.7 34 -2.8 27
23:50 1013 29.91 842 24.86 12.3 54.1 32 -3.9 25
23:55 1013 29.91 842 24.86 13.2 55.8 28 -4.9 23.2
24:00 1013 29.91 842 24.86 13.3 55.9 34 -2.2 28